Time,TemperatureF,DewpointF,PressureIn,WindDirection,WindDirectionDegrees,WindSpeedMPH,WindSpeedGustMPH,Humidity,HourlyPrecipIn,Conditions,Clouds,dailyrainin,SoftwareType,DateUTC
2013-08-29 00:10:00,79.5,71.0,29.95,NE,47,1.0,4.0,74,0.00,,,0.00,weatherlink.com 1.10,2013-08-29 05:10:00,
2013-08-29 00:26:00,79.0,70.0,29.95,SW,229,0.0,1.0,74,0.00,,,0.00,weatherlink.com 1.10,2013-08-29 05:26:00,
2013-08-29 00:41:00,77.6,71.0,29.95,SW,229,0.0,1.0,79,0.00,,,0.00,weatherlink.com 1.10,2013-08-29 05:41:00,
2013-08-29 00:57:00,76.1,71.0,29.95,SW,230,1.0,1.0,83,0.00,,,0.00,weatherlink.com 1.10,2013-08-29 05:57:00,
2013-08-29 01:12:00,76.0,72.0,29.95,NE,36,1.0,3.0,87,0.00,,,0.00,weatherlink.com 1.10,2013-08-29 06:12:00,
2013-08-29 01:26:00,76.2,73.0,29.95,ENE,68,2.0,3.0,89,0.00,,,0.00,weatherlink.com 1.10,2013-08-29 06:26:00,
2013-08-29 01:42:00,76.4,73.0,29.95,ENE,68,2.0,3.0,89,0.00,,,0.00,weatherlink.com 1.10,2013-08-29 06:42:00,
2013-08-29 01:56:00,75.4,73.0,29.95,ENE,67,1.0,3.0,92,0.00,,,0.00,weatherlink.com 1.10,2013-08-29 06:56:00,
2013-08-29 02:11:00,75.3,74.0,29.95,ENE,63,3.0,5.0,94,0.00,,,0.00,weatherlink.com 1.10,2013-08-29 07:11:00,
2013-08-29 02:27:00,75.5,74.0,29.95,East,82,3.0,3.0,94,0.00,,,0.00,weatherlink.com 1.10,2013-08-29 07:27:00,
2013-08-29 02:41:00,75.4,74.0,29.95,ENE,76,2.0,2.0,94,0.00,,,0.00,weatherlink.com 1.10,2013-08-29 07:41:00,
2013-08-29 02:57:00,75.2,73.0,29.95,ENE,72,1.0,1.0,94,0.00,,,0.00,weatherlink.com 1.10,2013-08-29 07:57:00,
2013-08-29 03:12:00,75.1,74.0,29.95,ENE,72,0.0,2.0,95,0.00,,,0.00,weatherlink.com 1.10,2013-08-29 08:12:00,
2013-08-29 03:28:00,74.3,73.0,29.95,ENE,73,1.0,2.0,97,0.00,,,0.00,weatherlink.com 1.10,2013-08-29 08:28:00,
2013-08-29 03:42:00,74.2,73.0,29.95,ENE,72,1.0,3.0,97,0.00,,,0.00,weatherlink.com 1.10,2013-08-29 08:42:00,
2013-08-29 03:57:00,74.3,73.0,29.96,ENE,68,2.0,3.0,97,0.00,,,0.00,weatherlink.com 1.10,2013-08-29 08:57:00,
2013-08-29 04:12:00,74.2,73.0,29.95,ENE,68,1.0,2.0,96,0.00,,,0.00,weatherlink.com 1.10,2013-08-29 09:12:00,
2013-08-29 04:27:00,74.0,73.0,29.95,ENE,68,1.0,2.0,96,0.00,,,0.00,weatherlink.com 1.10,2013-08-29 09:27:00,
2013-08-29 04:42:00,73.7,73.0,29.95,ENE,70,1.0,3.0,96,0.00,,,0.00,weatherlink.com 1.10,2013-08-29 09:42:00,
2013-08-29 04:58:00,73.5,72.0,29.95,ENE,69,1.0,2.0,96,0.00,,,0.00,weatherlink.com 1.10,2013-08-29 09:58:00,
2013-08-29 05:13:00,73.2,72.0,29.95,ENE,70,0.0,1.0,96,0.00,,,0.00,weatherlink.com 1.10,2013-08-29 10:13:00,
2013-08-29 05:28:00,73.0,72.0,29.95,ENE,70,0.0,2.0,96,0.00,,,0.00,weatherlink.com 1.10,2013-08-29 10:28:00,
2013-08-29 05:43:00,72.9,72.0,29.96,ENE,70,0.0,2.0,96,0.00,,,0.00,weatherlink.com 1.10,2013-08-29 10:43:00,
2013-08-29 05:58:00,72.6,71.0,29.96,ENE,70,1.0,2.0,96,0.00,,,0.00,weatherlink.com 1.10,2013-08-29 10:58:00,
2013-08-29 06:14:00,72.5,71.0,29.96,ENE,70,0.0,2.0,96,0.00,,,0.00,weatherlink.com 1.10,2013-08-29 11:14:00,
2013-08-29 06:28:00,72.3,71.0,29.97,ENE,69,0.0,1.0,96,0.00,,,0.00,weatherlink.com 1.10,2013-08-29 11:28:00,
2013-08-29 06:44:00,72.1,71.0,29.97,ENE,70,1.0,1.0,97,0.00,,,0.00,weatherlink.com 1.10,2013-08-29 11:44:00,
2013-08-29 06:58:00,72.2,71.0,29.98,ENE,71,1.0,2.0,97,0.00,,,0.00,weatherlink.com 1.10,2013-08-29 11:58:00,
2013-08-29 07:13:00,72.4,72.0,29.98,ENE,71,0.0,2.0,97,0.00,,,0.00,weatherlink.com 1.10,2013-08-29 12:13:00,
2013-08-29 07:29:00,72.7,72.0,29.98,ENE,71,0.0,2.0,97,0.00,,,0.00,weatherlink.com 1.10,2013-08-29 12:29:00,
2013-08-29 07:43:00,73.2,72.0,29.99,East,89,2.0,4.0,97,0.00,,,0.00,weatherlink.com 1.10,2013-08-29 12:43:00,
2013-08-29 07:59:00,73.5,73.0,29.99,ENE,74,2.0,4.0,97,0.00,,,0.00,weatherlink.com 1.10,2013-08-29 12:59:00,
2013-08-29 08:14:00,74.1,73.0,29.99,ENE,72,4.0,5.0,97,0.00,,,0.00,weatherlink.com 1.10,2013-08-29 13:14:00,
2013-08-29 08:28:00,74.5,73.0,29.99,East,79,2.0,4.0,95,0.00,,,0.00,weatherlink.com 1.10,2013-08-29 13:28:00,
2013-08-29 08:44:00,75.3,74.0,29.99,ENE,75,1.0,2.0,94,0.00,,,0.00,weatherlink.com 1.10,2013-08-29 13:44:00,
2013-08-29 08:59:00,75.9,74.0,29.99,ENE,68,0.0,4.0,92,0.00,,,0.00,weatherlink.com 1.10,2013-08-29 13:59:00,
2013-08-29 09:15:00,77.1,74.0,29.99,ENE,58,7.0,7.0,91,0.00,,,0.00,weatherlink.com 1.10,2013-08-29 14:15:00,
2013-08-29 09:29:00,78.1,74.0,30.00,East,89,1.0,3.0,88,0.00,,,0.00,weatherlink.com 1.10,2013-08-29 14:29:00,
2013-08-29 09:44:00,80.0,75.0,29.99,East,98,0.0,4.0,85,0.00,,,0.00,weatherlink.com 1.10,2013-08-29 14:44:00,
2013-08-29 10:00:00,81.1,75.0,30.00,East,94,1.0,4.0,82,0.00,,,0.00,weatherlink.com 1.10,2013-08-29 15:00:00,
2013-08-29 10:15:00,81.7,75.0,30.00,WSW,249,1.0,3.0,79,0.00,,,0.00,weatherlink.com 1.10,2013-08-29 15:15:00,
2013-08-29 10:30:00,83.5,76.0,30.00,NE,41,2.0,4.0,77,0.00,,,0.00,weatherlink.com 1.10,2013-08-29 15:30:00,
2013-08-29 10:44:00,82.2,76.0,30.00,NE,54,0.0,5.0,80,0.00,,,0.00,weatherlink.com 1.10,2013-08-29 15:44:00,
2013-08-29 11:00:00,84.4,76.0,30.00,NE,52,1.0,4.0,75,0.00,,,0.00,weatherlink.com 1.10,2013-08-29 16:00:00,
2013-08-29 11:15:00,85.7,76.0,30.00,East,101,2.0,4.0,73,0.00,,,0.00,weatherlink.com 1.10,2013-08-29 16:15:00,
2013-08-29 11:31:00,86.3,77.0,30.00,ENE,65,6.0,6.0,73,0.00,,,0.00,weatherlink.com 1.10,2013-08-29 16:31:00,
2013-08-29 11:45:00,85.6,77.0,30.00,ESE,107,2.0,6.0,75,0.00,,,0.00,weatherlink.com 1.10,2013-08-29 16:45:00,
2013-08-29 12:01:00,88.0,78.0,29.99,East,82,4.0,4.0,72,0.00,,,0.00,weatherlink.com 1.10,2013-08-29 17:01:00,
2013-08-29 12:15:00,88.1,77.0,29.99,WSW,254,0.0,4.0,70,0.00,,,0.00,weatherlink.com 1.10,2013-08-29 17:15:00,
2013-08-29 12:30:00,89.1,78.0,29.99,East,91,1.0,7.0,69,0.00,,,0.00,weatherlink.com 1.10,2013-08-29 17:30:00,
2013-08-29 12:46:00,86.9,77.0,29.99,East,101,2.0,6.0,73,0.00,,,0.00,weatherlink.com 1.10,2013-08-29 17:46:00,
2013-08-29 13:00:00,87.5,78.0,29.98,ENE,74,2.0,7.0,74,0.00,,,0.00,weatherlink.com 1.10,2013-08-29 18:00:00,
2013-08-29 13:16:00,88.6,78.0,29.98,ENE,65,3.0,8.0,70,0.00,,,0.00,weatherlink.com 1.10,2013-08-29 18:16:00,
2013-08-29 13:31:00,90.5,78.0,29.98,ENE,74,7.0,7.0,67,0.00,,,0.00,weatherlink.com 1.10,2013-08-29 18:31:00,
2013-08-29 13:45:00,89.5,77.0,29.97,NE,53,5.0,7.0,67,0.00,,,0.00,weatherlink.com 1.10,2013-08-29 18:45:00,
2013-08-29 14:01:00,87.5,78.0,29.97,ENE,66,7.0,10.0,73,0.00,,,0.00,weatherlink.com 1.10,2013-08-29 19:01:00,
2013-08-29 14:16:00,89.8,77.0,29.97,ENE,60,3.0,6.0,67,0.00,,,0.00,weatherlink.com 1.10,2013-08-29 19:16:00,
2013-08-29 14:32:00,88.3,77.0,29.96,WSW,240,2.0,8.0,70,0.00,,,0.00,weatherlink.com 1.10,2013-08-29 19:32:00,
2013-08-29 14:46:00,88.6,77.0,29.96,ENE,61,1.0,6.0,69,0.00,,,0.00,weatherlink.com 1.10,2013-08-29 19:46:00,
2013-08-29 15:02:00,88.1,78.0,29.96,ENE,71,2.0,5.0,71,0.00,,,0.00,weatherlink.com 1.10,2013-08-29 20:02:00,
2013-08-29 15:16:00,87.6,78.0,29.95,East,84,2.0,5.0,73,0.00,,,0.00,weatherlink.com 1.10,2013-08-29 20:16:00,
2013-08-29 15:31:00,87.9,77.0,29.95,ENE,77,6.0,7.0,71,0.00,,,0.00,weatherlink.com 1.10,2013-08-29 20:31:00,
2013-08-29 15:47:00,89.4,78.0,29.94,ENE,57,4.0,7.0,69,0.00,,,0.00,weatherlink.com 1.10,2013-08-29 20:47:00,
2013-08-29 16:02:00,89.4,78.0,29.94,ESE,102,1.0,7.0,70,0.00,,,0.00,weatherlink.com 1.10,2013-08-29 21:02:00,
2013-08-29 16:16:00,89.5,79.0,29.93,ENE,68,1.0,5.0,71,0.00,,,0.00,weatherlink.com 1.10,2013-08-29 21:16:00,
2013-08-29 16:32:00,90.4,78.0,29.93,ENE,64,6.0,6.0,68,0.00,,,0.00,weatherlink.com 1.10,2013-08-29 21:32:00,
2013-08-29 16:47:00,88.5,78.0,29.94,ENE,67,3.0,5.0,72,0.00,,,0.00,weatherlink.com 1.10,2013-08-29 21:47:00,
2013-08-29 17:02:00,88.1,78.0,29.93,ENE,76,2.0,5.0,73,0.00,,,0.00,weatherlink.com 1.10,2013-08-29 22:02:00,
2013-08-29 17:16:00,88.5,78.0,29.93,ENE,71,2.0,5.0,72,0.00,,,0.00,weatherlink.com 1.10,2013-08-29 22:16:00,
2013-08-29 17:33:00,88.3,79.0,29.92,ENE,73,1.0,4.0,74,0.00,,,0.00,weatherlink.com 1.10,2013-08-29 22:33:00,
2013-08-29 17:47:00,88.5,78.0,29.92,ENE,68,0.0,3.0,72,0.00,,,0.00,weatherlink.com 1.10,2013-08-29 22:47:00,
2013-08-29 18:02:00,87.6,78.0,29.92,ENE,68,1.0,5.0,74,0.00,,,0.00,weatherlink.com 1.10,2013-08-29 23:02:00,
2013-08-29 18:18:00,85.8,78.0,29.93,East,81,3.0,5.0,78,0.00,,,0.00,weatherlink.com 1.10,2013-08-29 23:18:00,
2013-08-29 18:32:00,84.9,78.0,29.93,ENE,68,2.0,3.0,80,0.00,,,0.00,weatherlink.com 1.10,2013-08-29 23:32:00,
2013-08-29 18:48:00,84.3,78.0,29.92,ENE,59,2.0,3.0,81,0.00,,,0.00,weatherlink.com 1.10,2013-08-29 23:48:00,
2013-08-29 19:03:00,83.8,78.0,29.93,ENE,62,1.0,2.0,82,0.00,,,0.00,weatherlink.com 1.10,2013-08-30 00:03:00,
2013-08-29 19:17:00,83.4,78.0,29.92,ENE,62,0.0,1.0,83,0.00,,,0.00,weatherlink.com 1.10,2013-08-30 00:17:00,
2013-08-29 19:33:00,82.7,78.0,29.92,ENE,62,0.0,1.0,84,0.00,,,0.00,weatherlink.com 1.10,2013-08-30 00:33:00,
2013-08-29 19:48:00,82.0,78.0,29.92,ENE,62,0.0,0.0,86,0.00,,,0.00,weatherlink.com 1.10,2013-08-30 00:48:00,
2013-08-29 20:03:00,81.3,77.0,29.92,ENE,62,0.0,0.0,87,0.00,,,0.00,weatherlink.com 1.10,2013-08-30 01:03:00,
2013-08-29 20:18:00,80.7,77.0,29.93,ENE,62,0.0,0.0,88,0.00,,,0.00,weatherlink.com 1.10,2013-08-30 01:18:00,
2013-08-29 20:34:00,80.1,77.0,29.93,ENE,62,0.0,1.0,89,0.00,,,0.00,weatherlink.com 1.10,2013-08-30 01:34:00,
2013-08-29 20:48:00,79.8,77.0,29.93,ENE,63,0.0,1.0,90,0.00,,,0.00,weatherlink.com 1.10,2013-08-30 01:48:00,
2013-08-29 21:03:00,79.4,77.0,29.93,ENE,62,0.0,1.0,91,0.00,,,0.00,weatherlink.com 1.10,2013-08-30 02:03:00,
2013-08-29 21:19:00,79.0,76.0,29.93,ENE,62,1.0,1.0,91,0.00,,,0.00,weatherlink.com 1.10,2013-08-30 02:19:00,
2013-08-29 21:33:00,78.8,76.0,29.93,ENE,62,0.0,1.0,92,0.00,,,0.00,weatherlink.com 1.10,2013-08-30 02:33:00,
2013-08-29 21:48:00,78.5,76.0,29.93,ENE,64,0.0,2.0,92,0.00,,,0.00,weatherlink.com 1.10,2013-08-30 02:48:00,
2013-08-29 22:03:00,78.2,76.0,29.93,ENE,63,0.0,1.0,93,0.00,,,0.00,weatherlink.com 1.10,2013-08-30 03:03:00,
2013-08-29 22:19:00,77.6,76.0,29.92,ENE,63,0.0,1.0,94,0.00,,,0.00,weatherlink.com 1.10,2013-08-30 03:19:00,
2013-08-29 22:48:00,76.8,75.0,29.92,ENE,62,0.0,0.0,95,0.00,,,0.00,weatherlink.com 1.10,2013-08-30 03:48:00,
2013-08-29 23:04:00,76.7,76.0,29.92,ENE,63,1.0,2.0,96,0.00,,,0.00,weatherlink.com 1.10,2013-08-30 04:04:00,
2013-08-29 23:19:00,76.5,75.0,29.92,ENE,63,0.0,1.0,96,0.00,,,0.00,weatherlink.com 1.10,2013-08-30 04:19:00,
2013-08-29 23:33:00,76.3,75.0,29.92,ENE,63,0.0,2.0,96,0.00,,,0.00,weatherlink.com 1.10,2013-08-30 04:33:00,
2013-08-29 23:49:00,75.8,75.0,29.92,ENE,64,0.0,0.0,96,0.00,,,0.00,weatherlink.com 1.10,2013-08-30 04:49:00,